| time (UTC) | temp C | wind direction | speed KPH | gust KPH | rain 1hr cm | rain 24hr cm | rain mn cm | humidity % | barometer mb |
| 20260510130004 | 13 | 360 | 22.5 | 32.2 | 0.00 | 0.00 | 0.00 | 82 | 1011.6 |
| 20260510124601 | 13 | 12 | 27.4 | 38.6 | 0.00 | 0.00 | 0.00 | 82 | 1011.0 |
| 20260510123107 | 13 | 31 | 22.5 | 40.2 | 0.00 | 0.00 | 0.00 | 82 | 1010.7 |
| 20260510121553 | 14 | 49 | 25.7 | 38.6 | 0.00 | 0.00 | 0.00 | 81 | 1010.0 |
| 20260510120049 | 14 | 60 | 24.1 | 32.2 | 0.00 | 0.00 | 0.00 | 82 | 1009.6 |
| 20260510114546 | 15 | 44 | 22.5 | 30.6 | 0.00 | 0.00 | 0.00 | 82 | 1009.2 |
| 20260510113045 | 15 | 31 | 17.7 | 25.7 | 0.00 | 0.00 | 0.00 | 81 | 1009.2 |
| 20260510111539 | 15 | 49 | 16.1 | 29.0 | 0.00 | 0.00 | 0.00 | 80 | 1009.0 |
| 20260510110036 | 15 | 55 | 17.7 | 25.7 | 0.00 | 0.00 | 0.00 | 80 | 1008.5 |
| 20260510104533 | 15 | 57 | 17.7 | 25.7 | 0.00 | 0.00 | 0.00 | 80 | 1008.4 |
| 20260510103031 | 16 | 57 | 16.1 | 25.7 | 0.00 | 0.00 | 0.00 | 79 | 1008.2 |
| 20260510101527 | 16 | 64 | 20.9 | 29.0 | 0.00 | 0.00 | 0.00 | 79 | 1007.9 |
| 20260510100025 | 16 | 36 | 14.5 | 22.5 | 0.00 | 0.00 | 0.00 | 79 | 1007.7 |
| 20260510094523 | 16 | 14 | 16.1 | 25.7 | 0.00 | 0.00 | 0.00 | 78 | 1007.6 |
| 20260510093022 | 16 | 325 | 8.0 | 25.7 | 0.00 | 0.00 | 0.00 | 78 | 1008.3 |
| 20260510091517 | 16 | 360 | 19.3 | 30.6 | 0.00 | 0.00 | 0.00 | 78 | 1006.6 |
| 20260510090016 | 16 | 360 | 14.5 | 29.0 | 0.00 | 0.00 | 0.00 | 77 | 1006.6 |
| 20260510084512 | 16 | 110 | 14.5 | 25.7 | 0.00 | 0.00 | 0.00 | 76 | 1006.4 |
| 20260510083010 | 16 | 94 | 16.1 | 29.0 | 0.00 | 0.00 | 0.00 | 75 | 1006.2 |
| 20260510081509 | 17 | 79 | 22.5 | 30.6 | 0.00 | 0.00 | 0.00 | 73 | 1006.1 |
| 20260510080002 | 17 | 83 | 17.7 | 24.1 | 0.00 | 0.00 | 0.00 | 73 | 1005.6 |
| 20260510074559 | 18 | 78 | 17.7 | 29.0 | 0.00 | 0.00 | 0.00 | 72 | 1005.1 |
| 20260510073113 | 18 | 80 | 20.9 | 27.4 | 0.00 | 0.00 | 0.00 | 72 | 1004.6 |
| 20260510071604 | 18 | 88 | 17.7 | 25.7 | 0.00 | 0.00 | 0.00 | 71 | 1004.5 |
| 20260510070052 | 18 | 58 | 17.7 | 25.7 | 0.00 | 0.00 | 0.00 | 70 | 1004.4 |
| 20260510064555 | 19 | 68 | 19.3 | 29.0 | 0.00 | 0.00 | 0.00 | 69 | 1005.0 |
| 20260510063047 | 20 | 38 | 17.7 | 25.7 | 0.00 | 0.00 | 0.00 | 68 | 1005.8 |
| 20260510061544 | 20 | 24 | 16.1 | 25.7 | 0.00 | 0.00 | 0.00 | 68 | 1005.8 |
| 20260510060041 | 20 | 61 | 16.1 | 24.1 | 0.00 | 0.00 | 0.00 | 66 | 1005.6 |
| 20260510054536 | 20 | 21 | 11.3 | 22.5 | 0.00 | 0.00 | 0.00 | 64 | 1005.3 |
| 20260510053036 | 21 | 67 | 11.3 | 19.3 | 0.00 | 0.00 | 0.00 | 61 | 1005.1 |
| 20260510051532 | 21 | 59 | 17.7 | 25.7 | 0.00 | 0.00 | 0.00 | 60 | 1005.2 |
| 20260510050026 | 22 | 69 | 12.9 | 17.7 | 0.00 | 0.00 | 0.00 | 56 | 1004.7 |
| 20260510044525 | 22 | 355 | 3.2 | 12.9 | 0.00 | 0.00 | 0.00 | 53 | 1005.1 |
| 20260510043024 | 22 | 107 | 14.5 | 22.5 | 0.00 | 0.00 | 0.00 | 52 | 1004.6 |
| 20260510041526 | 23 | 92 | 3.2 | 25.7 | 0.00 | 0.00 | 0.00 | 48 | 1004.6 |
| 20260510040028 | 23 | 111 | 8.0 | 24.1 | 0.00 | 0.00 | 0.00 | 35 | 1004.7 |
| 20260510034531 | 24 | 78 | 3.2 | 12.9 | 0.00 | 0.00 | 0.00 | 23 | 1004.2 |
| 20260510033024 | 25 | 89 | 12.9 | 16.1 | 0.00 | 0.00 | 0.00 | 21 | 1003.9 |
| 20260510031521 | 25 | 90 | 9.7 | 17.7 | 0.00 | 0.00 | 0.00 | 20 | 1003.5 |
| 20260510030020 | 24 | 229 | 3.2 | 11.3 | 0.00 | 0.00 | 0.00 | 19 | 1003.5 |
| 20260510024519 | 25 | 84 | 3.2 | 4.8 | 0.00 | 0.00 | 0.00 | 18 | 1003.0 |
| 20260510023019 | 25 | 82 | 3.2 | 6.4 | 0.00 | 0.00 | 0.00 | 18 | 1002.5 |
| 20260510021531 | 26 | 81 | 0.0 | 6.4 | 0.00 | 0.00 | 0.00 | 18 | 1002.1 |
| 20260510020018 | 26 | 82 | 6.4 | 11.3 | 0.00 | 0.00 | 0.00 | 17 | 1001.4 |
| 20260510014517 | 27 | 76 | 3.2 | 8.0 | 0.00 | 0.00 | 0.00 | 16 | 1001.2 |
| 20260510013017 | 28 | 85 | 9.7 | 12.9 | 0.00 | 0.00 | 0.00 | 16 | 1000.9 |
| 20260510011517 | 28 | 49 | 4.8 | 8.0 | 0.00 | 0.00 | 0.00 | 15 | 1000.8 |
| 20260510010016 | 29 | 48 | 3.2 | 9.7 | 0.00 | 0.00 | 0.00 | 15 | 1000.7 |
| 20260510004518 | 30 | 51 | 6.4 | 14.5 | 0.00 | 0.00 | 0.00 | 14 | 1000.6 |
| 20260510003015 | 31 | 19 | 3.2 | 11.3 | 0.00 | 0.00 | 0.00 | 13 | 1000.7 |
| 20260510001514 | 31 | 94 | 4.8 | 9.7 | 0.00 | 0.00 | 0.00 | 13 | 1000.8 |
| 20260510000017 | 32 | 335 | 4.8 | 8.0 | 0.00 | 0.00 | 0.00 | 12 | 1000.8 |
| 20260509234511 | 33 | 298 | 4.8 | 12.9 | 0.00 | 0.00 | 0.00 | 11 | 1001.1 |
| 20260509233009 | 32 | 321 | 11.3 | 17.7 | 0.00 | 0.00 | 0.00 | 12 | 1001.2 |
| 20260509231508 | 32 | 37 | 1.6 | 9.7 | 0.00 | 0.00 | 0.00 | 12 | 1001.4 |
| 20260509230007 | 32 | 360 | 11.3 | 20.9 | 0.00 | 0.00 | 0.00 | 11 | 1001.6 |
| 20260509224506 | 32 | 345 | 12.9 | 27.4 | 0.00 | 0.00 | 0.00 | 10 | 1001.6 |
| 20260509223003 | 33 | 293 | 14.5 | 25.7 | 0.00 | 0.00 | 0.00 | 12 | 1001.7 |
| 20260509221503 | 33 | 279 | 20.9 | 33.8 | 0.00 | 0.00 | 0.00 | 12 | 1001.8 |
| 20260509220003 | 33 | 300 | 14.5 | 46.7 | 0.00 | 0.00 | 0.00 | 12 | 1001.7 |
| 20260509214501 | 33 | 355 | 12.9 | 25.7 | 0.00 | 0.00 | 0.00 | 13 | 1001.9 |
| 20260509213101 | 33 | 242 | 17.7 | 32.2 | 0.00 | 0.00 | 0.00 | 12 | 1002.0 |
| 20260509211601 | 33 | 263 | 17.7 | 27.4 | 0.00 | 0.00 | 0.00 | 13 | 1002.4 |
| 20260509210114 | 33 | 306 | 19.3 | 32.2 | 0.00 | 0.00 | 0.00 | 13 | 1002.7 |
| 20260509204559 | 33 | 296 | 16.1 | 32.2 | 0.00 | 0.00 | 0.00 | 14 | 1002.8 |
| 20260509203050 | 33 | 284 | 17.7 | 32.2 | 0.00 | 0.00 | 0.00 | 14 | 1003.0 |
| 20260509201556 | 33 | 265 | 22.5 | 37.0 | 0.00 | 0.00 | 0.00 | 16 | 1003.2 |
| 20260509200058 | 33 | 321 | 14.5 | 27.4 | 0.00 | 0.00 | 0.00 | 17 | 1003.3 |
| 20260509194543 | 32 | 360 | 14.5 | 24.1 | 0.00 | 0.00 | 0.00 | 19 | 1003.6 |
| 20260509193043 | 30 | 278 | 16.1 | 29.0 | 0.00 | 0.00 | 0.00 | 21 | 1003.8 |
| 20260509191540 | 31 | 270 | 14.5 | 37.0 | 0.00 | 0.00 | 0.00 | 19 | 1004.2 |
| 20260509190041 | 32 | 304 | 12.9 | 30.6 | 0.00 | 0.00 | 0.00 | 19 | 1004.4 |
| 20260509184535 | 31 | 360 | 11.3 | 25.7 | 0.00 | 0.00 | 0.00 | 21 | 1004.7 |
| 20260509183032 | 29 | 360 | 24.1 | 32.2 | 0.00 | 0.00 | 0.00 | 22 | 1005.1 |
| 20260509181530 | 30 | 360 | 17.7 | 38.6 | 0.00 | 0.00 | 0.00 | 22 | 1005.2 |
| 20260509180026 | 28 | 244 | 27.4 | 40.2 | 0.00 | 0.00 | 0.00 | 24 | 1005.6 |
| 20260509174523 | 27 | 235 | 19.3 | 38.6 | 0.00 | 0.00 | 0.00 | 25 | 1005.6 |
| 20260509173020 | 27 | 189 | 17.7 | 30.6 | 0.00 | 0.00 | 0.00 | 27 | 1005.8 |
| 20260509171527 | 26 | 190 | 19.3 | 38.6 | 0.00 | 0.00 | 0.00 | 28 | 1006.1 |
| 20260509170025 | 26 | 194 | 24.1 | 35.4 | 0.00 | 0.00 | 0.00 | 29 | 1006.3 |
| 20260509164511 | 26 | 151 | 8.0 | 30.6 | 0.00 | 0.00 | 0.00 | 32 | 1006.5 |
| 20260509163011 | 25 | 148 | 17.7 | 35.4 | 0.00 | 0.00 | 0.00 | 33 | 1006.6 |
| 20260509161505 | 24 | 170 | 20.9 | 30.6 | 0.00 | 0.00 | 0.00 | 35 | 1006.9 |
| 20260509160002 | 23 | 204 | 24.1 | 30.6 | 0.00 | 0.00 | 0.00 | 39 | 1007.2 |
| 20260509154601 | 23 | 151 | 12.9 | 27.4 | 0.00 | 0.00 | 0.00 | 40 | 1007.3 |
| 20260509153100 | 22 | 200 | 8.0 | 27.4 | 0.00 | 0.00 | 0.00 | 40 | 1007.6 |
| 20260509151600 | 22 | 133 | 14.5 | 25.7 | 0.00 | 0.00 | 0.00 | 39 | 1007.6 |
| 20260509150055 | 22 | 123 | 11.3 | 22.5 | 0.00 | 0.00 | 0.00 | 43 | 1007.9 |
| 20260509144552 | 22 | 107 | 3.2 | 12.9 | 0.00 | 0.00 | 0.00 | 44 | 1008.0 |
| 20260509143049 | 21 | 355 | 3.2 | 6.4 | 0.00 | 0.00 | 0.00 | 45 | 1008.2 |
| 20260509141547 | 21 | 355 | 1.6 | 8.0 | 0.00 | 0.00 | 0.00 | 45 | 1008.4 |
| 20260509140058 | 21 | 311 | 4.8 | 8.0 | 0.00 | 0.00 | 0.00 | 45 | 1008.6 |
| 20260509134602 | 19 | 316 | 4.8 | 8.0 | 0.00 | 0.00 | 0.00 | 51 | 1008.7 |
| 20260509133039 | 18 | 315 | 0.0 | 3.2 | 0.00 | 0.00 | 0.00 | 51 | 1008.6 |
| 20260509131548 | 17 | 315 | 0.0 | 3.2 | 0.00 | 0.00 | 0.00 | 52 | 1008.7 |